Terminal Aerodrome Forecast
Issued by NWS Louisville, KY

Home | Current Version | Previous Version | Text Only | Print | Product List | Glossary On
Versions: 1 2 3 4 5 6 7 8 9 10 11 12 13 14 15 16 17
000
FTUS43 KLMK 211129
TAFSDF
TAF
KSDF 211129Z 2112/2218 31008KT 6SM SHRA OVC035
     FM211400 33007KT P6SM -SHRA OVC010
     FM212200 02007KT 5SM -SHRA OVC007=

USA.gov is the U.S. government's official web portal to all federal, state and local government web resources and services.